sensor_id;sensor_type;location;lat;lon;timestamp;P1;durP1;ratioP1;P2;durP2;ratioP2
56114;SDS011;41988;53.020;6.576;2022-08-21T00:02:26;10.20;;;3.28;;
56114;SDS011;41988;53.020;6.576;2022-08-21T00:05:11;9.05;;;2.92;;
56114;SDS011;41988;53.020;6.576;2022-08-21T00:07:56;11.20;;;3.92;;
56114;SDS011;41988;53.020;6.576;2022-08-21T00:10:40;8.23;;;3.67;;
56114;SDS011;41988;53.020;6.576;2022-08-21T00:13:26;6.85;;;3.40;;
56114;SDS011;41988;53.020;6.576;2022-08-21T00:16:10;11.90;;;3.80;;
56114;SDS011;41988;53.020;6.576;2022-08-21T00:18:54;7.22;;;3.40;;
56114;SDS011;41988;53.020;6.576;2022-08-21T00:21:38;11.88;;;3.97;;
56114;SDS011;41988;53.020;6.576;2022-08-21T00:24:23;10.18;;;3.72;;
56114;SDS011;41988;53.020;6.576;2022-08-21T00:27:08;7.32;;;3.55;;
56114;SDS011;41988;53.020;6.576;2022-08-21T00:29:52;11.27;;;3.97;;
56114;SDS011;41988;53.020;6.576;2022-08-21T00:32:38;7.95;;;3.63;;
56114;SDS011;41988;53.020;6.576;2022-08-21T00:35:25;10.18;;;3.55;;
56114;SDS011;41988;53.020;6.576;2022-08-21T00:38:13;7.10;;;3.30;;
56114;SDS011;41988;53.020;6.576;2022-08-21T00:41:00;9.93;;;3.63;;
56114;SDS011;41988;53.020;6.576;2022-08-21T00:43:49;7.80;;;3.78;;
56114;SDS011;41988;53.020;6.576;2022-08-21T00:46:35;10.35;;;4.15;;
56114;SDS011;41988;53.020;6.576;2022-08-21T00:49:20;9.38;;;4.07;;
56114;SDS011;41988;53.020;6.576;2022-08-21T00:54:18;9.63;;;3.47;;
56114;SDS011;41988;53.020;6.576;2022-08-21T00:57:07;10.43;;;4.18;;
56114;SDS011;41988;53.020;6.576;2022-08-21T01:00:06;8.82;;;3.78;;
56114;SDS011;41988;53.020;6.576;2022-08-21T01:02:52;9.18;;;4.00;;
56114;SDS011;41988;53.020;6.576;2022-08-21T01:05:36;11.15;;;4.53;;
56114;SDS011;41988;53.020;6.576;2022-08-21T01:08:21;10.80;;;5.03;;
56114;SDS011;41988;53.020;6.576;2022-08-21T01:11:06;10.95;;;5.35;;
56114;SDS011;41988;53.020;6.576;2022-08-21T01:13:51;10.30;;;4.60;;
56114;SDS011;41988;53.020;6.576;2022-08-21T01:16:36;8.43;;;5.05;;
56114;SDS011;41988;53.020;6.576;2022-08-21T01:19:20;9.25;;;4.57;;
56114;SDS011;41988;53.020;6.576;2022-08-21T01:22:06;12.02;;;5.05;;
56114;SDS011;41988;53.020;6.576;2022-08-21T01:24:50;11.10;;;5.10;;
56114;SDS011;41988;53.020;6.576;2022-08-21T01:27:34;9.98;;;5.05;;
56114;SDS011;41988;53.020;6.576;2022-08-21T01:30:20;13.40;;;5.32;;
56114;SDS011;41988;53.020;6.576;2022-08-21T01:33:08;11.18;;;5.03;;
56114;SDS011;41988;53.020;6.576;2022-08-21T01:35:52;11.60;;;4.80;;
56114;SDS011;41988;53.020;6.576;2022-08-21T01:38:37;10.80;;;5.38;;
56114;SDS011;41988;53.020;6.576;2022-08-21T01:41:21;13.52;;;5.45;;
56114;SDS011;41988;53.020;6.576;2022-08-21T01:44:05;10.50;;;5.13;;
56114;SDS011;41988;53.020;6.576;2022-08-21T01:46:50;9.38;;;6.35;;
56114;SDS011;41988;53.020;6.576;2022-08-21T01:49:36;12.75;;;6.32;;
56114;SDS011;41988;53.020;6.576;2022-08-21T01:52:21;11.20;;;5.47;;
56114;SDS011;41988;53.020;6.576;2022-08-21T01:55:06;10.68;;;5.93;;
56114;SDS011;41988;53.020;6.576;2022-08-21T01:57:56;12.73;;;6.38;;
56114;SDS011;41988;53.020;6.576;2022-08-21T02:00:42;11.50;;;6.38;;
56114;SDS011;41988;53.020;6.576;2022-08-21T02:03:27;13.30;;;7.35;;
56114;SDS011;41988;53.020;6.576;2022-08-21T02:06:13;13.18;;;6.65;;
56114;SDS011;41988;53.020;6.576;2022-08-21T02:09:02;17.80;;;6.65;;
56114;SDS011;41988;53.020;6.576;2022-08-21T02:11:48;13.45;;;6.97;;
56114;SDS011;41988;53.020;6.576;2022-08-21T02:14:32;14.38;;;7.18;;
56114;SDS011;41988;53.020;6.576;2022-08-21T02:17:16;11.25;;;6.97;;
56114;SDS011;41988;53.020;6.576;2022-08-21T02:20:01;11.52;;;7.18;;
56114;SDS011;41988;53.020;6.576;2022-08-21T02:22:45;14.48;;;7.70;;
56114;SDS011;41988;53.020;6.576;2022-08-21T02:25:29;13.77;;;7.40;;
56114;SDS011;41988;53.020;6.576;2022-08-21T02:28:14;11.23;;;6.53;;
56114;SDS011;41988;53.020;6.576;2022-08-21T02:30:59;17.65;;;8.52;;
56114;SDS011;41988;53.020;6.576;2022-08-21T02:33:44;17.05;;;8.07;;
56114;SDS011;41988;53.020;6.576;2022-08-21T02:36:28;14.90;;;7.38;;
56114;SDS011;41988;53.020;6.576;2022-08-21T02:39:13;16.25;;;8.38;;
56114;SDS011;41988;53.020;6.576;2022-08-21T02:41:57;15.05;;;6.70;;
56114;SDS011;41988;53.020;6.576;2022-08-21T02:44:41;14.13;;;7.32;;
56114;SDS011;41988;53.020;6.576;2022-08-21T02:47:25;14.27;;;8.00;;
56114;SDS011;41988;53.020;6.576;2022-08-21T02:50:09;13.82;;;7.47;;
56114;SDS011;41988;53.020;6.576;2022-08-21T02:52:53;13.88;;;7.60;;
56114;SDS011;41988;53.020;6.576;2022-08-21T02:55:38;13.88;;;7.30;;
56114;SDS011;41988;53.020;6.576;2022-08-21T02:58:24;12.45;;;7.80;;
56114;SDS011;41988;53.020;6.576;2022-08-21T03:01:17;14.77;;;7.80;;
56114;SDS011;41988;53.020;6.576;2022-08-21T03:04:01;15.57;;;8.07;;
56114;SDS011;41988;53.020;6.576;2022-08-21T03:06:45;17.15;;;9.23;;
56114;SDS011;41988;53.020;6.576;2022-08-21T03:11:41;11.30;;;7.63;;
56114;SDS011;41988;53.020;6.576;2022-08-21T03:14:27;17.25;;;8.15;;
56114;SDS011;41988;53.020;6.576;2022-08-21T03:17:11;17.33;;;8.00;;
56114;SDS011;41988;53.020;6.576;2022-08-21T03:19:56;18.13;;;8.30;;
56114;SDS011;41988;53.020;6.576;2022-08-21T03:22:40;14.98;;;7.43;;
56114;SDS011;41988;53.020;6.576;2022-08-21T03:25:26;14.27;;;7.93;;
56114;SDS011;41988;53.020;6.576;2022-08-21T03:28:13;16.60;;;7.75;;
56114;SDS011;41988;53.020;6.576;2022-08-21T03:30:58;11.45;;;7.10;;
56114;SDS011;41988;53.020;6.576;2022-08-21T03:33:43;12.63;;;7.15;;
56114;SDS011;41988;53.020;6.576;2022-08-21T03:36:28;13.55;;;7.35;;
56114;SDS011;41988;53.020;6.576;2022-08-21T03:39:12;15.45;;;7.95;;
56114;SDS011;41988;53.020;6.576;2022-08-21T03:41:57;14.68;;;7.75;;
56114;SDS011;41988;53.020;6.576;2022-08-21T03:44:43;13.85;;;7.50;;
56114;SDS011;41988;53.020;6.576;2022-08-21T03:47:27;12.90;;;7.40;;
56114;SDS011;41988;53.020;6.576;2022-08-21T03:50:11;10.05;;;7.35;;
56114;SDS011;41988;53.020;6.576;2022-08-21T03:52:55;10.23;;;7.10;;
56114;SDS011;41988;53.020;6.576;2022-08-21T03:55:40;11.40;;;6.85;;
56114;SDS011;41988;53.020;6.576;2022-08-21T03:58:25;9.20;;;6.05;;
56114;SDS011;41988;53.020;6.576;2022-08-21T04:01:11;11.18;;;6.32;;
56114;SDS011;41988;53.020;6.576;2022-08-21T04:03:56;11.80;;;6.68;;
56114;SDS011;41988;53.020;6.576;2022-08-21T04:06:40;11.85;;;6.03;;
56114;SDS011;41988;53.020;6.576;2022-08-21T04:09:25;15.15;;;6.63;;
56114;SDS011;41988;53.020;6.576;2022-08-21T04:12:10;10.07;;;6.20;;
56114;SDS011;41988;53.020;6.576;2022-08-21T04:14:54;10.45;;;6.80;;
56114;SDS011;41988;53.020;6.576;2022-08-21T04:17:38;11.15;;;6.85;;
56114;SDS011;41988;53.020;6.576;2022-08-21T04:20:23;12.93;;;7.13;;
56114;SDS011;41988;53.020;6.576;2022-08-21T04:23:08;16.65;;;6.95;;
56114;SDS011;41988;53.020;6.576;2022-08-21T04:25:53;14.18;;;6.63;;
56114;SDS011;41988;53.020;6.576;2022-08-21T04:28:39;14.52;;;6.75;;
56114;SDS011;41988;53.020;6.576;2022-08-21T04:31:24;14.00;;;7.22;;
56114;SDS011;41988;53.020;6.576;2022-08-21T04:34:08;13.68;;;7.18;;
56114;SDS011;41988;53.020;6.576;2022-08-21T04:36:53;20.45;;;6.97;;
56114;SDS011;41988;53.020;6.576;2022-08-21T04:39:37;15.25;;;7.15;;
56114;SDS011;41988;53.020;6.576;2022-08-21T04:42:21;16.58;;;7.72;;
56114;SDS011;41988;53.020;6.576;2022-08-21T04:45:06;13.93;;;7.10;;
56114;SDS011;41988;53.020;6.576;2022-08-21T04:47:51;12.45;;;7.50;;
56114;SDS011;41988;53.020;6.576;2022-08-21T04:53:47;12.15;;;7.60;;
56114;SDS011;41988;53.020;6.576;2022-08-21T04:56:37;10.88;;;7.90;;
56114;SDS011;41988;53.020;6.576;2022-08-21T04:59:48;13.27;;;7.50;;
56114;SDS011;41988;53.020;6.576;2022-08-21T05:02:35;12.93;;;7.63;;
56114;SDS011;41988;53.020;6.576;2022-08-21T05:05:20;15.55;;;7.82;;
56114;SDS011;41988;53.020;6.576;2022-08-21T05:08:04;14.88;;;7.50;;
56114;SDS011;41988;53.020;6.576;2022-08-21T05:10:51;12.57;;;7.30;;
56114;SDS011;41988;53.020;6.576;2022-08-21T05:13:35;12.82;;;6.80;;
56114;SDS011;41988;53.020;6.576;2022-08-21T05:16:20;12.45;;;7.70;;
56114;SDS011;41988;53.020;6.576;2022-08-21T05:19:07;11.20;;;7.03;;
56114;SDS011;41988;53.020;6.576;2022-08-21T05:21:51;15.85;;;7.35;;
56114;SDS011;41988;53.020;6.576;2022-08-21T05:24:36;13.73;;;6.57;;
56114;SDS011;41988;53.020;6.576;2022-08-21T05:27:21;12.57;;;6.72;;
56114;SDS011;41988;53.020;6.576;2022-08-21T05:30:06;9.98;;;6.43;;
56114;SDS011;41988;53.020;6.576;2022-08-21T05:32:55;12.80;;;7.00;;
56114;SDS011;41988;53.020;6.576;2022-08-21T05:35:41;11.35;;;6.10;;
56114;SDS011;41988;53.020;6.576;2022-08-21T05:38:25;11.35;;;6.38;;
56114;SDS011;41988;53.020;6.576;2022-08-21T05:41:11;10.88;;;6.13;;
56114;SDS011;41988;53.020;6.576;2022-08-21T05:43:55;13.45;;;6.47;;
56114;SDS011;41988;53.020;6.576;2022-08-21T05:46:39;13.35;;;6.65;;
56114;SDS011;41988;53.020;6.576;2022-08-21T05:49:24;11.75;;;5.95;;
56114;SDS011;41988;53.020;6.576;2022-08-21T05:52:08;12.13;;;5.32;;
56114;SDS011;41988;53.020;6.576;2022-08-21T05:54:53;8.98;;;5.82;;
56114;SDS011;41988;53.020;6.576;2022-08-21T05:57:37;10.82;;;5.78;;
56114;SDS011;41988;53.020;6.576;2022-08-21T06:00:24;10.75;;;5.40;;
56114;SDS011;41988;53.020;6.576;2022-08-21T06:03:16;12.63;;;5.20;;
56114;SDS011;41988;53.020;6.576;2022-08-21T06:06:03;9.15;;;4.82;;
56114;SDS011;41988;53.020;6.576;2022-08-21T06:08:47;11.55;;;4.70;;
56114;SDS011;41988;53.020;6.576;2022-08-21T06:11:32;11.40;;;5.72;;
56114;SDS011;41988;53.020;6.576;2022-08-21T06:14:17;13.65;;;5.35;;
56114;SDS011;41988;53.020;6.576;2022-08-21T06:17:02;10.82;;;4.93;;
56114;SDS011;41988;53.020;6.576;2022-08-21T06:19:54;14.20;;;5.18;;
56114;SDS011;41988;53.020;6.576;2022-08-21T06:22:38;15.02;;;4.30;;
56114;SDS011;41988;53.020;6.576;2022-08-21T06:25:22;13.32;;;4.90;;
56114;SDS011;41988;53.020;6.576;2022-08-21T06:28:08;9.43;;;4.45;;
56114;SDS011;41988;53.020;6.576;2022-08-21T06:30:54;8.10;;;4.35;;
56114;SDS011;41988;53.020;6.576;2022-08-21T06:33:38;11.70;;;4.18;;
56114;SDS011;41988;53.020;6.576;2022-08-21T06:36:22;11.23;;;4.72;;
56114;SDS011;41988;53.020;6.576;2022-08-21T06:39:07;10.45;;;4.57;;
56114;SDS011;41988;53.020;6.576;2022-08-21T06:41:51;9.35;;;4.15;;
56114;SDS011;41988;53.020;6.576;2022-08-21T06:44:36;12.13;;;4.72;;
56114;SDS011;41988;53.020;6.576;2022-08-21T06:47:20;12.95;;;4.32;;
56114;SDS011;41988;53.020;6.576;2022-08-21T06:50:04;8.07;;;3.95;;
56114;SDS011;41988;53.020;6.576;2022-08-21T06:52:58;12.35;;;4.30;;
56114;SDS011;41988;53.020;6.576;2022-08-21T06:55:43;10.48;;;4.00;;
56114;SDS011;41988;53.020;6.576;2022-08-21T06:58:28;11.60;;;4.13;;
56114;SDS011;41988;53.020;6.576;2022-08-21T07:01:12;12.50;;;3.78;;
56114;SDS011;41988;53.020;6.576;2022-08-21T07:03:57;9.27;;;3.55;;
56114;SDS011;41988;53.020;6.576;2022-08-21T07:06:41;9.27;;;3.50;;
56114;SDS011;41988;53.020;6.576;2022-08-21T07:09:25;9.35;;;3.60;;
56114;SDS011;41988;53.020;6.576;2022-08-21T07:12:09;11.50;;;3.53;;
56114;SDS011;41988;53.020;6.576;2022-08-21T07:14:53;9.13;;;3.75;;
56114;SDS011;41988;53.020;6.576;2022-08-21T07:17:38;10.07;;;3.50;;
56114;SDS011;41988;53.020;6.576;2022-08-21T07:20:22;9.75;;;3.20;;
56114;SDS011;41988;53.020;6.576;2022-08-21T07:23:10;9.35;;;3.65;;
56114;SDS011;41988;53.020;6.576;2022-08-21T07:25:59;8.80;;;2.92;;
56114;SDS011;41988;53.020;6.576;2022-08-21T07:28:44;11.70;;;2.88;;
56114;SDS011;41988;53.020;6.576;2022-08-21T07:31:28;14.63;;;3.10;;
56114;SDS011;41988;53.020;6.576;2022-08-21T07:34:12;8.82;;;2.72;;
56114;SDS011;41988;53.020;6.576;2022-08-21T07:36:57;10.57;;;2.80;;
56114;SDS011;41988;53.020;6.576;2022-08-21T07:39:42;10.52;;;2.63;;
56114;SDS011;41988;53.020;6.576;2022-08-21T07:42:27;10.05;;;2.67;;
56114;SDS011;41988;53.020;6.576;2022-08-21T07:45:12;13.00;;;2.88;;
56114;SDS011;41988;53.020;6.576;2022-08-21T07:47:56;10.45;;;2.70;;
56114;SDS011;41988;53.020;6.576;2022-08-21T07:50:40;7.72;;;2.70;;
56114;SDS011;41988;53.020;6.576;2022-08-21T07:53:25;7.38;;;2.72;;
56114;SDS011;41988;53.020;6.576;2022-08-21T07:56:09;8.23;;;2.47;;
56114;SDS011;41988;53.020;6.576;2022-08-21T07:58:54;8.63;;;2.67;;
56114;SDS011;41988;53.020;6.576;2022-08-21T08:01:41;6.75;;;3.10;;
56114;SDS011;41988;53.020;6.576;2022-08-21T08:04:25;11.95;;;3.13;;
56114;SDS011;41988;53.020;6.576;2022-08-21T08:07:09;9.02;;;2.80;;
56114;SDS011;41988;53.020;6.576;2022-08-21T08:09:54;8.15;;;2.85;;
56114;SDS011;41988;53.020;6.576;2022-08-21T08:12:40;9.68;;;3.13;;
56114;SDS011;41988;53.020;6.576;2022-08-21T08:15:26;14.68;;;3.47;;
56114;SDS011;41988;53.020;6.576;2022-08-21T08:18:11;11.63;;;3.30;;
56114;SDS011;41988;53.020;6.576;2022-08-21T08:20:55;11.93;;;3.47;;
56114;SDS011;41988;53.020;6.576;2022-08-21T08:23:39;8.38;;;2.85;;
56114;SDS011;41988;53.020;6.576;2022-08-21T08:26:24;7.57;;;3.22;;
56114;SDS011;41988;53.020;6.576;2022-08-21T08:29:08;6.32;;;2.65;;
56114;SDS011;41988;53.020;6.576;2022-08-21T08:31:53;10.02;;;2.90;;
56114;SDS011;41988;53.020;6.576;2022-08-21T08:34:38;11.65;;;3.38;;
56114;SDS011;41988;53.020;6.576;2022-08-21T08:37:23;8.98;;;2.30;;
56114;SDS011;41988;53.020;6.576;2022-08-21T08:40:10;9.32;;;2.30;;
56114;SDS011;41988;53.020;6.576;2022-08-21T08:43:04;11.50;;;2.83;;
56114;SDS011;41988;53.020;6.576;2022-08-21T08:45:50;9.88;;;2.28;;
56114;SDS011;41988;53.020;6.576;2022-08-21T08:54:25;8.02;;;2.15;;
56114;SDS011;41988;53.020;6.576;2022-08-21T08:57:22;7.65;;;2.10;;
56114;SDS011;41988;53.020;6.576;2022-08-21T09:00:09;7.05;;;2.03;;
56114;SDS011;41988;53.020;6.576;2022-08-21T09:02:56;9.40;;;2.40;;
56114;SDS011;41988;53.020;6.576;2022-08-21T09:05:47;7.43;;;2.30;;
56114;SDS011;41988;53.020;6.576;2022-08-21T09:11:56;7.72;;;2.50;;
56114;SDS011;41988;53.020;6.576;2022-08-21T09:14:51;9.13;;;2.25;;
56114;SDS011;41988;53.020;6.576;2022-08-21T09:29:51;7.57;;;2.33;;
56114;SDS011;41988;53.020;6.576;2022-08-21T09:32:38;8.73;;;2.25;;
56114;SDS011;41988;53.020;6.576;2022-08-21T09:35:32;10.30;;;2.38;;
56114;SDS011;41988;53.020;6.576;2022-08-21T09:38:36;8.15;;;2.25;;
56114;SDS011;41988;53.020;6.576;2022-08-21T09:41:29;8.50;;;2.20;;
56114;SDS011;41988;53.020;6.576;2022-08-21T09:44:24;8.68;;;2.55;;
56114;SDS011;41988;53.020;6.576;2022-08-21T09:47:12;9.05;;;2.35;;
56114;SDS011;41988;53.020;6.576;2022-08-21T09:50:06;7.72;;;2.28;;
56114;SDS011;41988;53.020;6.576;2022-08-21T09:52:57;10.32;;;2.60;;
56114;SDS011;41988;53.020;6.576;2022-08-21T09:55:48;9.77;;;2.45;;
56114;SDS011;41988;53.020;6.576;2022-08-21T09:58:54;11.40;;;3.03;;
56114;SDS011;41988;53.020;6.576;2022-08-21T10:01:42;8.50;;;2.30;;
56114;SDS011;41988;53.020;6.576;2022-08-21T10:07:19;10.30;;;2.08;;
56114;SDS011;41988;53.020;6.576;2022-08-21T10:13:52;6.53;;;2.00;;
56114;SDS011;41988;53.020;6.576;2022-08-21T10:16:51;10.57;;;2.22;;
56114;SDS011;41988;53.020;6.576;2022-08-21T10:25:52;7.05;;;1.92;;
56114;SDS011;41988;53.020;6.576;2022-08-21T10:31:53;8.68;;;2.20;;
56114;SDS011;41988;53.020;6.576;2022-08-21T10:40:31;11.48;;;2.63;;
56114;SDS011;41988;53.020;6.576;2022-08-21T10:46:52;10.05;;;2.63;;
56114;SDS011;41988;53.020;6.576;2022-08-21T10:56:24;6.55;;;2.25;;
56114;SDS011;41988;53.020;6.576;2022-08-21T11:02:22;7.63;;;2.10;;
56114;SDS011;41988;53.020;6.576;2022-08-21T11:05:25;8.73;;;2.15;;
56114;SDS011;41988;53.020;6.576;2022-08-21T11:08:15;8.95;;;1.63;;
56114;SDS011;41988;53.020;6.576;2022-08-21T11:14:04;7.35;;;1.70;;
56114;SDS011;41988;53.020;6.576;2022-08-21T11:17:10;5.97;;;1.70;;
56114;SDS011;41988;53.020;6.576;2022-08-21T11:20:03;7.85;;;2.22;;
56114;SDS011;41988;53.020;6.576;2022-08-21T11:22:53;8.82;;;2.13;;
56114;SDS011;41988;53.020;6.576;2022-08-21T11:25:45;8.30;;;1.67;;
56114;SDS011;41988;53.020;6.576;2022-08-21T11:28:36;6.30;;;2.05;;
56114;SDS011;41988;53.020;6.576;2022-08-21T11:35:06;9.35;;;1.90;;
56114;SDS011;41988;53.020;6.576;2022-08-21T11:50:24;10.57;;;2.22;;
56114;SDS011;41988;53.020;6.576;2022-08-21T11:56:16;8.55;;;2.38;;
56114;SDS011;41988;53.020;6.576;2022-08-21T11:59:06;9.27;;;1.98;;
56114;SDS011;41988;53.020;6.576;2022-08-21T12:02:06;8.55;;;2.22;;
56114;SDS011;41988;53.020;6.576;2022-08-21T12:05:24;7.40;;;1.85;;
56114;SDS011;41988;53.020;6.576;2022-08-21T12:08:31;6.78;;;1.65;;
56114;SDS011;41988;53.020;6.576;2022-08-21T12:16:50;5.07;;;1.95;;
56114;SDS011;41988;53.020;6.576;2022-08-21T12:19:35;8.68;;;2.00;;
56114;SDS011;41988;53.020;6.576;2022-08-21T12:22:19;10.65;;;2.60;;
56114;SDS011;41988;53.020;6.576;2022-08-21T12:25:06;7.88;;;2.17;;
56114;SDS011;41988;53.020;6.576;2022-08-21T12:28:01;10.35;;;2.47;;
56114;SDS011;41988;53.020;6.576;2022-08-21T12:30:51;9.70;;;2.80;;
56114;SDS011;41988;53.020;6.576;2022-08-21T12:33:39;9.05;;;2.53;;
56114;SDS011;41988;53.020;6.576;2022-08-21T12:36:26;8.25;;;2.20;;
56114;SDS011;41988;53.020;6.576;2022-08-21T12:39:23;10.48;;;2.00;;
56114;SDS011;41988;53.020;6.576;2022-08-21T12:42:24;6.82;;;1.90;;
56114;SDS011;41988;53.020;6.576;2022-08-21T12:45:31;6.18;;;2.10;;
56114;SDS011;41988;53.020;6.576;2022-08-21T12:48:25;8.98;;;2.10;;
56114;SDS011;41988;53.020;6.576;2022-08-21T12:51:14;11.40;;;2.58;;
56114;SDS011;41988;53.020;6.576;2022-08-21T12:54:01;6.95;;;2.33;;
56114;SDS011;41988;53.020;6.576;2022-08-21T12:56:54;6.72;;;2.38;;
56114;SDS011;41988;53.020;6.576;2022-08-21T12:59:50;9.45;;;1.90;;
56114;SDS011;41988;53.020;6.576;2022-08-21T13:02:37;9.38;;;2.10;;
56114;SDS011;41988;53.020;6.576;2022-08-21T13:05:35;10.10;;;2.38;;
56114;SDS011;41988;53.020;6.576;2022-08-21T13:08:21;12.55;;;3.47;;
56114;SDS011;41988;53.020;6.576;2022-08-21T13:11:08;7.55;;;2.10;;
56114;SDS011;41988;53.020;6.576;2022-08-21T13:13:54;7.45;;;3.45;;
56114;SDS011;41988;53.020;6.576;2022-08-21T13:16:38;9.02;;;2.03;;
56114;SDS011;41988;53.020;6.576;2022-08-21T13:19:23;9.40;;;2.58;;
56114;SDS011;41988;53.020;6.576;2022-08-21T13:22:12;8.40;;;2.53;;
56114;SDS011;41988;53.020;6.576;2022-08-21T13:24:58;9.35;;;2.60;;
56114;SDS011;41988;53.020;6.576;2022-08-21T13:27:42;7.05;;;2.17;;
56114;SDS011;41988;53.020;6.576;2022-08-21T13:30:31;7.82;;;1.92;;
56114;SDS011;41988;53.020;6.576;2022-08-21T13:33:16;9.00;;;2.42;;
56114;SDS011;41988;53.020;6.576;2022-08-21T13:36:04;8.85;;;1.92;;
56114;SDS011;41988;53.020;6.576;2022-08-21T13:38:50;7.03;;;2.08;;
56114;SDS011;41988;53.020;6.576;2022-08-21T13:41:37;7.30;;;2.15;;
56114;SDS011;41988;53.020;6.576;2022-08-21T13:47:38;6.63;;;2.08;;
56114;SDS011;41988;53.020;6.576;2022-08-21T13:50:24;6.55;;;2.25;;
56114;SDS011;41988;53.020;6.576;2022-08-21T13:56:07;6.50;;;1.80;;
56114;SDS011;41988;53.020;6.576;2022-08-21T13:58:52;6.60;;;2.30;;
56114;SDS011;41988;53.020;6.576;2022-08-21T14:01:48;6.10;;;2.25;;
56114;SDS011;41988;53.020;6.576;2022-08-21T14:04:38;6.55;;;1.95;;
56114;SDS011;41988;53.020;6.576;2022-08-21T14:07:33;10.30;;;2.28;;
56114;SDS011;41988;53.020;6.576;2022-08-21T14:10:20;7.80;;;2.10;;
56114;SDS011;41988;53.020;6.576;2022-08-21T14:13:06;7.88;;;1.77;;
56114;SDS011;41988;53.020;6.576;2022-08-21T14:15:55;5.88;;;1.98;;
56114;SDS011;41988;53.020;6.576;2022-08-21T14:18:46;7.10;;;2.15;;
56114;SDS011;41988;53.020;6.576;2022-08-21T14:21:33;7.38;;;1.90;;
56114;SDS011;41988;53.020;6.576;2022-08-21T14:27:07;7.18;;;1.90;;
56114;SDS011;41988;53.020;6.576;2022-08-21T14:29:56;5.72;;;2.00;;
56114;SDS011;41988;53.020;6.576;2022-08-21T14:32:43;7.13;;;1.55;;
56114;SDS011;41988;53.020;6.576;2022-08-21T14:35:29;7.63;;;1.80;;
56114;SDS011;41988;53.020;6.576;2022-08-21T14:38:15;7.30;;;1.70;;
56114;SDS011;41988;53.020;6.576;2022-08-21T14:41:08;11.00;;;2.05;;
56114;SDS011;41988;53.020;6.576;2022-08-21T14:44:05;6.18;;;1.95;;
56114;SDS011;41988;53.020;6.576;2022-08-21T14:46:51;7.20;;;1.88;;
56114;SDS011;41988;53.020;6.576;2022-08-21T14:49:36;5.82;;;1.55;;
56114;SDS011;41988;53.020;6.576;2022-08-21T14:52:21;5.10;;;2.38;;
56114;SDS011;41988;53.020;6.576;2022-08-21T14:55:07;7.07;;;1.98;;
56114;SDS011;41988;53.020;6.576;2022-08-21T14:57:57;6.53;;;1.70;;
56114;SDS011;41988;53.020;6.576;2022-08-21T15:00:41;8.23;;;1.90;;
56114;SDS011;41988;53.020;6.576;2022-08-21T15:03:26;7.72;;;2.22;;
56114;SDS011;41988;53.020;6.576;2022-08-21T15:06:10;5.65;;;1.75;;
56114;SDS011;41988;53.020;6.576;2022-08-21T15:08:54;8.95;;;2.05;;
56114;SDS011;41988;53.020;6.576;2022-08-21T15:11:39;7.18;;;2.10;;
56114;SDS011;41988;53.020;6.576;2022-08-21T15:14:24;8.43;;;1.70;;
56114;SDS011;41988;53.020;6.576;2022-08-21T15:17:10;7.60;;;1.98;;
56114;SDS011;41988;53.020;6.576;2022-08-21T15:19:56;7.60;;;2.30;;
56114;SDS011;41988;53.020;6.576;2022-08-21T15:22:40;9.25;;;1.90;;
56114;SDS011;41988;53.020;6.576;2022-08-21T15:25:25;7.72;;;2.05;;
56114;SDS011;41988;53.020;6.576;2022-08-21T15:28:10;5.97;;;1.60;;
56114;SDS011;41988;53.020;6.576;2022-08-21T15:30:56;5.95;;;1.90;;
56114;SDS011;41988;53.020;6.576;2022-08-21T15:33:41;5.72;;;1.75;;
56114;SDS011;41988;53.020;6.576;2022-08-21T15:36:26;5.93;;;1.83;;
56114;SDS011;41988;53.020;6.576;2022-08-21T15:39:10;4.30;;;1.55;;
56114;SDS011;41988;53.020;6.576;2022-08-21T15:41:55;7.20;;;2.15;;
56114;SDS011;41988;53.020;6.576;2022-08-21T15:44:41;6.85;;;1.90;;
56114;SDS011;41988;53.020;6.576;2022-08-21T15:47:29;8.57;;;2.50;;
56114;SDS011;41988;53.020;6.576;2022-08-21T15:50:18;6.13;;;1.80;;
56114;SDS011;41988;53.020;6.576;2022-08-21T15:53:02;6.65;;;2.28;;
56114;SDS011;41988;53.020;6.576;2022-08-21T15:55:47;6.78;;;1.98;;
56114;SDS011;41988;53.020;6.576;2022-08-21T15:58:32;7.07;;;2.00;;
56114;SDS011;41988;53.020;6.576;2022-08-21T16:01:16;5.78;;;1.75;;
56114;SDS011;41988;53.020;6.576;2022-08-21T16:04:01;7.18;;;1.60;;
56114;SDS011;41988;53.020;6.576;2022-08-21T16:06:47;7.28;;;2.13;;
56114;SDS011;41988;53.020;6.576;2022-08-21T16:09:32;7.53;;;2.00;;
56114;SDS011;41988;53.020;6.576;2022-08-21T16:12:19;7.88;;;2.17;;
56114;SDS011;41988;53.020;6.576;2022-08-21T16:15:09;6.20;;;1.88;;
56114;SDS011;41988;53.020;6.576;2022-08-21T16:17:55;8.57;;;2.72;;
56114;SDS011;41988;53.020;6.576;2022-08-21T16:20:41;120.88;;;21.30;;
56114;SDS011;41988;53.020;6.576;2022-08-21T16:23:25;9.82;;;2.20;;
56114;SDS011;41988;53.020;6.576;2022-08-21T16:26:11;22.00;;;3.90;;
56114;SDS011;41988;53.020;6.576;2022-08-21T16:28:57;8.60;;;2.05;;
56114;SDS011;41988;53.020;6.576;2022-08-21T16:31:43;4.30;;;1.50;;
56114;SDS011;41988;53.020;6.576;2022-08-21T16:34:28;6.65;;;1.73;;
56114;SDS011;41988;53.020;6.576;2022-08-21T16:37:13;5.43;;;1.50;;
56114;SDS011;41988;53.020;6.576;2022-08-21T16:39:58;6.07;;;1.98;;
56114;SDS011;41988;53.020;6.576;2022-08-21T16:42:43;8.88;;;1.90;;
56114;SDS011;41988;53.020;6.576;2022-08-21T16:45:28;6.63;;;1.67;;
56114;SDS011;41988;53.020;6.576;2022-08-21T16:48:13;4.55;;;1.52;;
56114;SDS011;41988;53.020;6.576;2022-08-21T16:50:58;7.63;;;2.10;;
56114;SDS011;41988;53.020;6.576;2022-08-21T16:53:43;6.82;;;1.90;;
56114;SDS011;41988;53.020;6.576;2022-08-21T16:56:28;7.57;;;1.80;;
56114;SDS011;41988;53.020;6.576;2022-08-21T16:59:13;8.55;;;1.70;;
56114;SDS011;41988;53.020;6.576;2022-08-21T17:01:57;7.72;;;2.08;;
56114;SDS011;41988;53.020;6.576;2022-08-21T17:04:42;9.13;;;2.30;;
56114;SDS011;41988;53.020;6.576;2022-08-21T17:07:27;6.38;;;2.00;;
56114;SDS011;41988;53.020;6.576;2022-08-21T17:10:12;5.97;;;1.98;;
56114;SDS011;41988;53.020;6.576;2022-08-21T17:12:58;7.45;;;2.55;;
56114;SDS011;41988;53.020;6.576;2022-08-21T17:15:43;9.88;;;2.00;;
56114;SDS011;41988;53.020;6.576;2022-08-21T17:18:27;10.50;;;1.88;;
56114;SDS011;41988;53.020;6.576;2022-08-21T17:21:12;6.50;;;2.35;;
56114;SDS011;41988;53.020;6.576;2022-08-21T17:23:57;7.45;;;2.25;;
56114;SDS011;41988;53.020;6.576;2022-08-21T17:26:42;5.20;;;1.70;;
56114;SDS011;41988;53.020;6.576;2022-08-21T17:29:28;5.47;;;1.80;;
56114;SDS011;41988;53.020;6.576;2022-08-21T17:32:18;7.22;;;1.75;;
56114;SDS011;41988;53.020;6.576;2022-08-21T17:35:02;9.98;;;1.85;;
56114;SDS011;41988;53.020;6.576;2022-08-21T17:37:47;6.30;;;1.75;;
56114;SDS011;41988;53.020;6.576;2022-08-21T17:40:31;10.82;;;2.03;;
56114;SDS011;41988;53.020;6.576;2022-08-21T17:43:15;9.00;;;1.98;;
56114;SDS011;41988;53.020;6.576;2022-08-21T17:46:00;7.60;;;2.17;;
56114;SDS011;41988;53.020;6.576;2022-08-21T17:48:44;6.55;;;1.80;;
56114;SDS011;41988;53.020;6.576;2022-08-21T17:51:28;5.97;;;1.92;;
56114;SDS011;41988;53.020;6.576;2022-08-21T17:54:12;11.65;;;2.20;;
56114;SDS011;41988;53.020;6.576;2022-08-21T17:56:57;12.80;;;2.53;;
56114;SDS011;41988;53.020;6.576;2022-08-21T17:59:42;8.23;;;1.95;;
56114;SDS011;41988;53.020;6.576;2022-08-21T18:02:27;8.18;;;2.10;;
56114;SDS011;41988;53.020;6.576;2022-08-21T18:05:14;6.93;;;1.88;;
56114;SDS011;41988;53.020;6.576;2022-08-21T18:07:59;8.38;;;1.80;;
56114;SDS011;41988;53.020;6.576;2022-08-21T18:10:44;6.85;;;2.00;;
56114;SDS011;41988;53.020;6.576;2022-08-21T18:13:32;4.43;;;1.90;;
56114;SDS011;41988;53.020;6.576;2022-08-21T18:16:20;8.48;;;2.30;;
56114;SDS011;41988;53.020;6.576;2022-08-21T18:19:10;6.97;;;2.33;;